createdAt,value
2018-06-13T00:02:05.084Z,100151.76
2018-06-13T00:04:34.112Z,100153.66
2018-06-13T00:07:03.259Z,100150.84
2018-06-13T00:09:31.991Z,100145.37
2018-06-13T00:12:00.626Z,100152.88
2018-06-13T00:14:29.305Z,100148.15
2018-06-13T00:16:57.941Z,100134.28
2018-06-13T00:19:27.061Z,100131.84
2018-06-13T00:21:55.703Z,100133.61
2018-06-13T00:24:24.345Z,100143.70
2018-06-13T00:26:53.045Z,100142.21
2018-06-13T00:29:21.723Z,100149.17
2018-06-13T00:31:50.419Z,100143.84
2018-06-13T00:34:19.379Z,100140.38
2018-06-13T00:36:49.188Z,100139.92
2018-06-13T00:39:18.438Z,100142.58
2018-06-13T00:41:47.658Z,100139.30
2018-06-13T00:44:16.292Z,100135.63
2018-06-13T00:46:44.972Z,100141.67
2018-06-13T00:49:13.607Z,100135.78
2018-06-13T00:51:42.318Z,100138.20
2018-06-13T00:54:10.960Z,100135.69
2018-06-13T00:56:39.697Z,100132.66
2018-06-13T00:59:08.376Z,100137.10
2018-06-13T01:01:37.088Z,100138.45
2018-06-13T01:04:05.791Z,100134.89
2018-06-13T01:06:34.480Z,100137.65
2018-06-13T01:09:03.182Z,100126.88
2018-06-13T01:11:31.858Z,100129.36
2018-06-13T01:14:00.491Z,100134.91
2018-06-13T01:16:29.166Z,100130.19
2018-06-13T01:18:57.963Z,100133.06
2018-06-13T01:21:26.646Z,100135.55
2018-06-13T01:23:55.314Z,100134.97
2018-06-13T01:26:24.005Z,100131.58
2018-06-13T01:28:52.751Z,100133.47
2018-06-13T01:31:21.447Z,100135.89
2018-06-13T01:33:50.140Z,100133.84
2018-06-13T01:36:18.837Z,100142.97
2018-06-13T01:38:47.495Z,100134.73
2018-06-13T01:41:16.167Z,100127.66
2018-06-13T01:43:44.921Z,100126.46
2018-06-13T01:46:13.618Z,100121.83
2018-06-13T01:48:42.304Z,100128.31
2018-06-13T01:51:10.960Z,100131.81
2018-06-13T01:53:42.107Z,100123.78
2018-06-13T01:56:12.516Z,100129.55
2018-06-13T01:58:42.221Z,100128.55
2018-06-13T02:01:11.982Z,100125.37
2018-06-13T02:03:41.690Z,100115.83
2018-06-13T02:06:11.140Z,100114.77
2018-06-13T02:08:41.519Z,100119.03
2018-06-13T02:11:10.686Z,100124.66
2018-06-13T02:13:39.921Z,100119.08
2018-06-13T02:16:08.796Z,100124.84
2018-06-13T02:18:37.641Z,100128.40
2018-06-13T02:21:06.598Z,100126.78
2018-06-13T02:23:35.618Z,100120.20
2018-06-13T02:26:05.567Z,100127.91
2018-06-13T02:28:34.713Z,100131.56
2018-06-13T02:31:03.635Z,100135.18
2018-06-13T02:33:32.353Z,100138.34
2018-06-13T02:36:01.028Z,100133.00
2018-06-13T02:38:29.675Z,100128.83
2018-06-13T02:40:58.331Z,100123.82
2018-06-13T02:43:27.024Z,100127.47
2018-06-13T02:45:55.676Z,100132.40
2018-06-13T02:48:25.671Z,100139.15
2018-06-13T02:50:54.266Z,100134.76
2018-06-13T02:53:22.943Z,100134.64
2018-06-13T02:55:51.605Z,100130.02
2018-06-13T02:58:20.276Z,100132.13
2018-06-13T03:00:48.921Z,100135.83
2018-06-13T03:03:17.590Z,100135.41
2018-06-13T03:05:46.257Z,100146.28
2018-06-13T03:08:14.962Z,100152.30
2018-06-13T03:10:43.612Z,100146.59
2018-06-13T03:13:12.312Z,100149.20
2018-06-13T03:15:40.968Z,100157.34
2018-06-13T03:18:09.799Z,100152.50
2018-06-13T03:20:38.437Z,100160.21
2018-06-13T03:23:07.151Z,100158.94
2018-06-13T03:25:35.785Z,100158.86
2018-06-13T03:28:04.438Z,100157.36
2018-06-13T03:30:33.360Z,100156.91
2018-06-13T03:33:02.241Z,100154.73
2018-06-13T03:35:31.123Z,100152.63
2018-06-13T03:37:59.992Z,100156.70
2018-06-13T03:40:29.009Z,100159.01
2018-06-13T03:42:57.865Z,100158.13
2018-06-13T03:45:26.517Z,100165.59
2018-06-13T03:47:55.170Z,100167.20
2018-06-13T03:50:23.885Z,100163.83
2018-06-13T03:52:52.701Z,100168.64
2018-06-13T03:55:21.635Z,100172.83
2018-06-13T03:57:50.254Z,100170.52
2018-06-13T04:00:18.923Z,100180.39
2018-06-13T04:02:49.882Z,100172.72
2018-06-13T04:05:18.602Z,100183.58
2018-06-13T04:07:47.238Z,100188.66
2018-06-13T04:10:15.900Z,100188.92
2018-06-13T04:12:44.528Z,100192.70
2018-06-13T04:15:13.517Z,100185.17
2018-06-13T04:17:42.193Z,100186.22
2018-06-13T04:20:10.845Z,100189.37
2018-06-13T04:22:40.581Z,100184.98
2018-06-13T04:25:09.320Z,100188.20
2018-06-13T04:27:38.096Z,100192.99
2018-06-13T04:30:06.719Z,100186.26
2018-06-13T04:32:35.384Z,100193.37
2018-06-13T04:35:05.668Z,100194.48
2018-06-13T04:37:34.304Z,100194.06
2018-06-13T04:40:03.395Z,100193.99
2018-06-13T04:42:32.810Z,100199.47
2018-06-13T04:45:01.377Z,100196.11
2018-06-13T04:47:30.014Z,100195.98
2018-06-13T04:49:58.806Z,100201.67
2018-06-13T04:52:28.325Z,100198.56
2018-06-13T04:54:57.291Z,100204.31
2018-06-13T04:57:25.910Z,100208.66
2018-06-13T04:59:54.542Z,100205.14
2018-06-13T05:02:23.207Z,100208.72
2018-06-13T05:04:51.866Z,100207.72
2018-06-13T05:07:20.549Z,100206.66
2018-06-13T05:09:52.673Z,100212.91
2018-06-13T05:12:21.949Z,100211.47
2018-06-13T05:14:50.660Z,100211.75
2018-06-13T05:17:19.292Z,100217.84
2018-06-13T05:19:47.934Z,100221.95
2018-06-13T05:22:16.641Z,100220.53
2018-06-13T05:24:45.295Z,100227.77
2018-06-13T05:27:14.045Z,100225.05
2018-06-13T05:29:42.613Z,100221.51
2018-06-13T05:32:13.377Z,100229.41
2018-06-13T05:34:42.000Z,100224.52
2018-06-13T05:37:10.685Z,100231.55
2018-06-13T05:39:39.344Z,100230.66
2018-06-13T05:42:08.034Z,100225.12
2018-06-13T05:44:36.700Z,100232.36
2018-06-13T05:47:05.420Z,100238.13
2018-06-13T05:49:34.141Z,100236.48
2018-06-13T05:52:02.756Z,100244.14
2018-06-13T05:54:31.393Z,100241.34
2018-06-13T05:57:00.204Z,100238.14
2018-06-13T05:59:28.895Z,100243.47
2018-06-13T06:01:57.799Z,100243.98
2018-06-13T06:04:26.464Z,100237.33
2018-06-13T06:06:55.297Z,100239.95
2018-06-13T06:09:23.943Z,100240.20
2018-06-13T06:11:52.933Z,100237.66
2018-06-13T06:14:21.990Z,100250.66
2018-06-13T06:16:50.686Z,100245.68
2018-06-13T06:19:19.529Z,100249.17
2018-06-13T06:21:48.216Z,100240.44
2018-06-13T06:24:16.848Z,100241.86
2018-06-13T06:26:45.509Z,100241.77
2018-06-13T06:29:14.174Z,100238.95
2018-06-13T06:31:42.852Z,100241.88
2018-06-13T06:34:11.552Z,100242.15
2018-06-13T06:36:40.195Z,100236.23
2018-06-13T06:39:08.898Z,100233.14
2018-06-13T06:41:37.553Z,100234.10
2018-06-13T06:44:06.225Z,100236.03
2018-06-13T06:46:34.899Z,100235.36
2018-06-13T06:49:03.566Z,100228.94
2018-06-13T06:51:32.216Z,100233.08
2018-06-13T06:54:00.957Z,100241.72
2018-06-13T06:56:29.615Z,100235.93
2018-06-13T06:58:58.339Z,100237.44
2018-06-13T07:01:27.026Z,100238.27
2018-06-13T07:03:55.724Z,100236.03
2018-06-13T07:09:08.777Z,100231.72
2018-06-13T07:11:37.503Z,100230.37
2018-06-13T07:14:06.408Z,100237.93
2018-06-13T07:16:35.144Z,100231.25
2018-06-13T07:19:06.967Z,100235.01
2018-06-13T07:21:35.635Z,100236.84
2018-06-13T07:24:04.334Z,100228.64
2018-06-13T07:26:32.994Z,100219.14
2018-06-13T07:29:01.797Z,100224.23
2018-06-13T07:31:30.465Z,100216.56
2018-06-13T07:33:59.221Z,100217.91
2018-06-13T07:36:27.988Z,100225.90
2018-06-13T07:38:56.860Z,100223.70
2018-06-13T07:41:25.860Z,100218.92
2018-06-13T07:43:54.606Z,100214.74
2018-06-13T07:46:23.483Z,100225.15
2018-06-13T07:48:52.159Z,100216.87
2018-06-13T07:51:20.842Z,100217.14
2018-06-13T07:53:49.697Z,100213.89
2018-06-13T07:56:19.386Z,100226.86
2018-06-13T07:58:48.102Z,100232.78
2018-06-13T08:01:16.758Z,100237.60
2018-06-13T08:03:46.806Z,100241.79
2018-06-13T08:06:15.515Z,100250.59
2018-06-13T08:08:44.243Z,100246.41
2018-06-13T08:11:12.912Z,100248.39
2018-06-13T08:13:41.584Z,100251.02
2018-06-13T08:16:10.305Z,100259.41
2018-06-13T08:18:40.005Z,100258.89
2018-06-13T08:21:08.765Z,100269.39
2018-06-13T08:23:37.465Z,100262.34
2018-06-13T08:26:06.216Z,100268.85
2018-06-13T08:28:34.907Z,100276.31
2018-06-13T08:31:03.617Z,100281.77
2018-06-13T08:33:32.278Z,100278.00
2018-06-13T08:36:00.975Z,100276.83
2018-06-13T08:38:29.743Z,100285.09
2018-06-13T08:40:58.470Z,100288.31
2018-06-13T08:43:27.189Z,100280.67
2018-06-13T08:45:55.987Z,100281.17
2018-06-13T08:48:26.945Z,100285.09
2018-06-13T08:50:55.710Z,100269.92
2018-06-13T08:53:24.403Z,100268.75
2018-06-13T08:55:53.147Z,100269.70
2018-06-13T08:58:24.676Z,100267.31
2018-06-13T09:00:53.387Z,100262.75
2018-06-13T09:03:22.216Z,100267.55
2018-06-13T09:05:50.871Z,100264.60
2018-06-13T09:08:19.573Z,100268.97
2018-06-13T09:10:48.335Z,100254.23
2018-06-13T09:13:17.122Z,100257.50
2018-06-13T09:15:45.844Z,100260.85
2018-06-13T09:18:14.525Z,100261.06
2018-06-13T09:20:43.330Z,100256.90
2018-06-13T09:23:11.994Z,100265.98
2018-06-13T09:25:40.708Z,100266.56
2018-06-13T09:28:09.413Z,100262.63
2018-06-13T09:30:38.101Z,100266.73
2018-06-13T09:33:06.797Z,100273.86
2018-06-13T09:35:35.544Z,100270.41
2018-06-13T09:38:04.268Z,100276.77
2018-06-13T09:40:32.934Z,100278.19
2018-06-13T09:43:01.664Z,100277.50
2018-06-13T09:48:13.139Z,100271.41
2018-06-13T09:50:41.811Z,100274.36
2018-06-13T09:53:10.575Z,100272.66
2018-06-13T09:55:39.251Z,100290.15
2018-06-13T09:58:07.964Z,100283.59
2018-06-13T10:00:36.680Z,100291.70
2018-06-13T10:03:05.377Z,100279.42
2018-06-13T10:05:34.033Z,100279.58
2018-06-13T10:08:02.786Z,100285.89
2018-06-13T10:10:31.421Z,100293.11
2018-06-13T10:13:00.219Z,100292.25
2018-06-13T10:15:28.898Z,100301.56
2018-06-13T10:17:57.662Z,100291.01
2018-06-13T10:20:26.351Z,100298.97
2018-06-13T10:22:55.037Z,100300.67
2018-06-13T10:25:23.784Z,100300.28
2018-06-13T10:27:52.509Z,100307.66
2018-06-13T10:30:21.192Z,100307.93
2018-06-13T10:32:50.003Z,100301.92
2018-06-13T10:35:18.707Z,100308.52
2018-06-13T10:37:47.363Z,100306.72
2018-06-13T10:40:16.008Z,100313.48
2018-06-13T10:42:45.672Z,100306.51
2018-06-13T10:45:14.341Z,100308.53
2018-06-13T10:47:43.052Z,100307.84
2018-06-13T10:50:14.217Z,100309.27
2018-06-13T10:52:42.938Z,100308.42
2018-06-13T10:55:11.619Z,100299.74
2018-06-13T10:57:40.328Z,100296.38
2018-06-13T11:00:09.000Z,100301.86
2018-06-13T11:02:37.721Z,100302.66
2018-06-13T11:05:06.412Z,100311.30
2018-06-13T11:07:37.785Z,100305.13
2018-06-13T11:10:06.446Z,100314.48
2018-06-13T11:12:35.132Z,100320.39
2018-06-13T11:15:03.930Z,100323.73
2018-06-13T11:17:32.590Z,100323.25
2018-06-13T11:20:01.313Z,100331.23
2018-06-13T11:22:30.009Z,100332.49
2018-06-13T11:24:58.739Z,100334.68
2018-06-13T11:27:27.443Z,100324.67
2018-06-13T11:29:56.125Z,100322.34
2018-06-13T11:32:24.827Z,100327.80
2018-06-13T11:34:53.527Z,100327.67
2018-06-13T11:37:22.188Z,100319.88
2018-06-13T11:39:50.911Z,100320.99
2018-06-13T11:42:19.603Z,100325.48
2018-06-13T11:44:51.098Z,100325.98
2018-06-13T11:47:19.780Z,100321.27
2018-06-13T11:49:48.522Z,100323.62
2018-06-13T11:52:17.209Z,100319.47
2018-06-13T11:54:46.030Z,100318.17
2018-06-13T11:57:14.704Z,100316.30
2018-06-13T11:59:43.540Z,100310.17
2018-06-13T12:02:12.243Z,100317.64
2018-06-13T12:04:40.930Z,100321.95
2018-06-13T12:07:10.677Z,100321.72
2018-06-13T12:09:39.344Z,100314.48
2018-06-13T12:12:08.375Z,100314.53
2018-06-13T12:14:37.095Z,100314.62
2018-06-13T12:28:14.896Z,100317.97
2018-06-13T12:30:45.522Z,100319.73
2018-06-13T12:33:17.319Z,100322.08
2018-06-13T12:35:46.398Z,100320.97
2018-06-13T12:38:18.051Z,100324.30
2018-06-13T12:40:47.408Z,100315.57
2018-06-13T12:43:18.087Z,100315.98
2018-06-13T12:45:47.991Z,100319.70
2018-06-13T12:48:19.728Z,100309.59
2018-06-13T12:50:50.528Z,100312.45
2018-06-13T12:53:19.800Z,100310.95
2018-06-13T12:55:48.702Z,100313.45
2018-06-13T12:58:23.308Z,100312.81
2018-06-13T13:00:57.688Z,100309.87
2018-06-13T13:03:23.726Z,100312.57
2018-06-13T13:06:01.984Z,100310.55
2018-06-13T13:08:31.913Z,100316.55
2018-06-13T13:11:01.388Z,100313.23
2018-06-13T13:13:30.559Z,100312.73
2018-06-13T13:15:59.248Z,100317.39
2018-06-13T13:18:28.766Z,100315.42
2018-06-13T13:20:57.848Z,100316.25
2018-06-13T13:23:27.156Z,100314.98
2018-06-13T13:26:01.896Z,100314.45
2018-06-13T13:28:31.079Z,100325.37
2018-06-13T13:31:07.553Z,100322.05
2018-06-13T13:33:36.475Z,100318.87
2018-06-13T13:36:08.755Z,100315.41
2018-06-13T13:38:39.413Z,100321.91
2018-06-13T13:41:14.553Z,100321.91
2018-06-13T13:43:44.032Z,100323.58
2018-06-13T13:46:12.656Z,100333.95
2018-06-13T13:48:42.267Z,100331.06
2018-06-13T13:51:16.602Z,100328.59
2018-06-13T13:53:52.200Z,100334.24
2018-06-13T14:02:01.212Z,100339.13
2018-06-13T14:04:29.849Z,100339.91
2018-06-13T14:06:58.625Z,100347.50
2018-06-13T14:09:27.322Z,100348.17
2018-06-13T14:11:56.131Z,100343.73
2018-06-13T14:14:24.999Z,100344.09
2018-06-13T14:16:53.760Z,100341.48
2018-06-13T14:19:22.628Z,100347.29
2018-06-13T14:21:52.019Z,100346.25
2018-06-13T14:24:20.729Z,100346.66
2018-06-13T14:26:49.481Z,100348.64
2018-06-13T14:29:18.319Z,100346.55
2018-06-13T14:31:48.688Z,100344.88
2018-06-13T14:34:17.456Z,100350.99
2018-06-13T14:36:47.330Z,100351.12
2018-06-13T14:39:16.233Z,100355.25
2018-06-13T14:41:45.237Z,100354.51
2018-06-13T14:44:14.314Z,100357.05
2018-06-13T14:46:43.440Z,100361.50
2018-06-13T14:49:12.246Z,100352.50
2018-06-13T14:51:41.045Z,100361.12
2018-06-13T14:54:09.771Z,100361.23
2018-06-13T14:56:39.104Z,100361.79
2018-06-13T14:59:08.016Z,100361.48
2018-06-13T15:01:38.193Z,100361.22
2018-06-13T15:04:07.129Z,100357.08
2018-06-13T15:06:35.890Z,100363.55
2018-06-13T15:09:04.688Z,100363.91
2018-06-13T15:11:33.274Z,100373.00
2018-06-13T15:14:02.164Z,100369.41
2018-06-13T15:16:31.007Z,100370.19
2018-06-13T15:18:59.983Z,100370.83
2018-06-13T15:21:28.670Z,100379.36
2018-06-13T15:23:57.951Z,100373.34
2018-06-13T15:26:26.657Z,100380.69
2018-06-13T15:28:55.866Z,100378.89
2018-06-13T15:31:24.906Z,100377.94
2018-06-13T15:33:53.674Z,100377.80
2018-06-13T15:36:37.730Z,100376.13
2018-06-13T15:39:06.416Z,100377.95
2018-06-13T15:41:35.092Z,100384.19
2018-06-13T15:44:03.931Z,100379.22
2018-06-13T15:46:32.629Z,100384.44
2018-06-13T15:49:01.590Z,100387.48
2018-06-13T15:51:30.452Z,100389.18
2018-06-13T15:53:59.720Z,100389.01
2018-06-13T15:56:29.083Z,100379.32
2018-06-13T15:58:57.998Z,100377.27
2018-06-13T16:01:30.018Z,100382.84
2018-06-13T16:03:59.351Z,100380.16
2018-06-13T16:06:28.338Z,100380.42
2018-06-13T16:08:57.508Z,100376.80
2018-06-13T16:11:26.806Z,100384.86
2018-06-13T16:13:55.497Z,100380.78
2018-06-13T16:16:25.281Z,100387.34
2018-06-13T16:18:55.735Z,100382.28
2018-06-13T16:21:26.085Z,100386.84
2018-06-13T16:23:55.131Z,100390.66
2018-06-13T16:26:24.002Z,100397.23
2018-06-13T16:28:52.619Z,100400.28
2018-06-13T16:31:21.974Z,100393.85
2018-06-13T16:33:50.777Z,100400.19
2018-06-13T16:36:19.901Z,100397.01
2018-06-13T16:38:48.626Z,100399.52
2018-06-13T16:41:17.390Z,100410.42
2018-06-13T16:43:47.074Z,100411.83
2018-06-13T16:46:15.947Z,100409.21
2018-06-13T16:48:44.652Z,100414.22
2018-06-13T16:51:49.617Z,100414.64
2018-06-13T16:54:18.261Z,100408.55
2018-06-13T16:56:47.035Z,100413.92
2018-06-13T16:59:16.161Z,100414.56
2018-06-13T17:01:45.119Z,100414.00
2018-06-13T17:04:14.071Z,100415.12
2018-06-13T17:06:42.778Z,100409.98
2018-06-13T17:09:22.858Z,100422.09
2018-06-13T17:11:51.633Z,100431.66
2018-06-13T17:14:21.087Z,100430.95
2018-06-13T17:16:49.781Z,100434.67
2018-06-13T17:19:18.762Z,100432.06
2018-06-13T17:21:49.262Z,100438.60
2018-06-13T17:24:19.114Z,100440.81
2018-06-13T17:26:50.941Z,100431.16
2018-06-13T17:29:20.212Z,100442.36
2018-06-13T17:31:49.169Z,100438.38
2018-06-13T17:34:20.690Z,100442.47
2018-06-13T17:36:53.151Z,100449.24
2018-06-13T17:39:22.632Z,100448.26
2018-06-13T17:41:51.304Z,100444.42
2018-06-13T17:44:24.772Z,100454.60
2018-06-13T17:46:53.404Z,100458.48
2018-06-13T17:49:22.381Z,100458.91
2018-06-13T17:51:54.012Z,100465.82
2018-06-13T17:54:23.339Z,100466.70
2018-06-13T17:56:52.047Z,100468.52
2018-06-13T17:59:20.901Z,100463.56
2018-06-13T18:01:50.071Z,100469.80
2018-06-13T18:04:19.318Z,100462.81
2018-06-13T18:06:48.496Z,100466.86
2018-06-13T18:09:17.572Z,100474.44
2018-06-13T18:11:47.872Z,100474.70
2018-06-13T18:14:20.942Z,100475.06
2018-06-13T18:16:50.548Z,100478.53
2018-06-13T18:24:55.564Z,100487.61
2018-06-13T18:27:24.723Z,100488.66
2018-06-13T18:29:56.263Z,100485.61
2018-06-13T18:32:25.104Z,100487.87
2018-06-13T18:34:53.920Z,100492.96
2018-06-13T18:37:22.845Z,100495.38
2018-06-13T18:39:52.555Z,100493.98
2018-06-13T18:42:27.970Z,100488.86
2018-06-13T18:45:03.082Z,100492.91
2018-06-13T18:47:39.353Z,100495.87
2018-06-13T18:50:13.977Z,100497.64
2018-06-13T18:52:48.974Z,100498.92
2018-06-13T18:55:18.684Z,100505.67
2018-06-13T18:57:47.710Z,100503.92
2018-06-13T19:00:16.709Z,100510.23
2018-06-13T19:02:46.383Z,100515.61
2018-06-13T19:05:15.479Z,100510.99
2018-06-13T19:08:02.625Z,100514.77
2018-06-13T19:10:31.520Z,100518.27
2018-06-13T19:13:00.614Z,100515.31
2018-06-13T19:15:30.735Z,100514.55
2018-06-13T19:18:00.306Z,100520.39
2018-06-13T19:20:29.455Z,100529.49
2018-06-13T19:22:59.393Z,100529.48
2018-06-13T19:25:29.749Z,100540.82
2018-06-13T19:27:59.038Z,100544.91
2018-06-13T19:30:29.593Z,100543.93
2018-06-13T19:32:58.895Z,100546.52
2018-06-13T19:35:27.901Z,100544.55
2018-06-13T19:37:56.957Z,100549.52
2018-06-13T19:40:25.726Z,100549.78
2018-06-13T19:42:54.487Z,100556.14
2018-06-13T19:45:23.216Z,100561.27
2018-06-13T19:47:52.329Z,100556.59
2018-06-13T19:50:21.070Z,100562.20
2018-06-13T19:52:49.741Z,100561.88
2018-06-13T19:55:21.219Z,100560.73
2018-06-13T19:57:49.988Z,100563.66
2018-06-13T20:11:48.601Z,100566.93
2018-06-13T20:14:35.785Z,100569.03
2018-06-13T20:17:09.148Z,100570.76
2018-06-13T20:19:39.639Z,100571.56
2018-06-13T20:22:09.727Z,100573.39
2018-06-13T20:24:41.160Z,100579.06
2018-06-13T20:27:19.423Z,100577.16
2018-06-13T20:30:07.065Z,100582.95
2018-06-13T20:32:40.626Z,100572.13
2018-06-13T20:35:13.127Z,100572.25
2018-06-13T20:37:42.170Z,100569.05
2018-06-13T20:40:11.338Z,100573.02
2018-06-13T20:42:43.286Z,100574.74
2018-06-13T20:45:14.768Z,100572.42
2018-06-13T20:47:44.080Z,100575.34
2018-06-13T20:50:13.698Z,100579.13
2018-06-13T20:52:42.906Z,100583.27
2018-06-13T20:55:16.209Z,100592.36
2018-06-13T20:57:47.332Z,100595.09
2018-06-13T21:00:18.168Z,100595.70
2018-06-13T21:02:52.865Z,100601.97
2018-06-13T21:05:24.127Z,100596.75
2018-06-13T21:07:58.078Z,100603.07
2018-06-13T21:10:28.232Z,100605.45
2018-06-13T21:13:04.524Z,100600.68
2018-06-13T21:15:34.153Z,100591.88
2018-06-13T21:18:16.059Z,100595.81
2018-06-13T21:20:49.980Z,100596.55
2018-06-13T21:23:24.341Z,100603.30
2018-06-13T21:25:57.086Z,100606.23
2018-06-13T21:28:31.748Z,100609.81
2018-06-13T21:31:03.726Z,100608.60
2018-06-13T21:33:52.562Z,100609.87
2018-06-13T21:36:25.719Z,100610.58
2018-06-13T21:41:45.831Z,100618.44
2018-06-13T21:44:15.400Z,100616.84
2018-06-13T21:46:44.975Z,100615.09
2018-06-13T21:49:14.291Z,100621.52
2018-06-13T21:51:49.881Z,100618.96
2018-06-13T21:54:25.432Z,100611.25
2018-06-13T21:57:09.051Z,100614.53
2018-06-13T21:59:40.183Z,100609.89
2018-06-13T22:02:16.269Z,100604.25
2018-06-13T22:04:48.719Z,100605.53
2018-06-13T22:07:30.457Z,100612.15
2018-06-13T22:09:59.929Z,100615.09
2018-06-13T22:12:29.487Z,100609.73
2018-06-13T22:14:59.887Z,100609.87
2018-06-13T22:17:29.575Z,100611.25
2018-06-13T22:19:59.766Z,100617.33
2018-06-13T22:22:31.348Z,100616.64
2018-06-13T22:25:07.614Z,100623.08
2018-06-13T22:27:38.310Z,100620.98
2018-06-13T22:30:07.960Z,100624.16
2018-06-13T22:32:38.553Z,100633.08
2018-06-13T22:35:09.499Z,100635.55
2018-06-13T22:37:39.661Z,100635.50
2018-06-13T22:40:08.829Z,100630.85
2018-06-13T22:42:38.654Z,100632.44
2018-06-13T22:45:12.129Z,100629.00
2018-06-13T22:47:55.783Z,100634.95
2018-06-13T22:50:27.270Z,100627.64
2018-06-13T22:52:56.363Z,100629.70
2018-06-13T22:55:25.521Z,100628.07
2018-06-13T22:57:54.854Z,100633.63
2018-06-13T23:00:24.268Z,100629.38
2018-06-13T23:02:53.705Z,100629.87
2018-06-13T23:05:23.088Z,100624.88
2018-06-13T23:07:52.746Z,100623.33
2018-06-13T23:10:22.302Z,100629.27
2018-06-13T23:12:52.097Z,100630.31
2018-06-13T23:15:21.297Z,100634.45
2018-06-13T23:17:52.286Z,100636.12
2018-06-13T23:20:23.342Z,100630.29
2018-06-13T23:22:52.599Z,100627.52
2018-06-13T23:25:25.467Z,100626.92
2018-06-13T23:27:54.392Z,100620.58
2018-06-13T23:30:23.573Z,100617.72
2018-06-13T23:32:52.772Z,100621.60
2018-06-13T23:35:22.064Z,100608.95
2018-06-13T23:37:51.205Z,100618.95
2018-06-13T23:40:20.143Z,100616.95
2018-06-13T23:42:49.388Z,100622.86
2018-06-13T23:45:22.639Z,100621.28
2018-06-13T23:47:55.931Z,100616.13
2018-06-13T23:50:25.208Z,100618.91
2018-06-13T23:52:55.824Z,100619.09
2018-06-13T23:55:28.054Z,100616.52
2018-06-13T23:57:57.273Z,100621.23
